sensor_id;sensor_type;location;lat;lon;timestamp;temperature;humidity
52203;DHT22;38173;52.850;6.970;2022-08-02T00:00:11;11.20;99.90
52203;DHT22;38173;52.850;6.970;2022-08-02T00:02:39;11.20;99.90
52203;DHT22;38173;52.850;6.970;2022-08-02T00:05:08;11.20;99.90
52203;DHT22;38173;52.850;6.970;2022-08-02T00:07:34;11.20;99.90
52203;DHT22;38173;52.850;6.970;2022-08-02T00:10:00;11.20;99.90
52203;DHT22;38173;52.850;6.970;2022-08-02T00:12:26;11.20;99.90
52203;DHT22;38173;52.850;6.970;2022-08-02T00:14:52;11.20;99.90
52203;DHT22;38173;52.850;6.970;2022-08-02T00:17:18;11.10;99.90
52203;DHT22;38173;52.850;6.970;2022-08-02T00:19:44;11.20;99.90
52203;DHT22;38173;52.850;6.970;2022-08-02T00:22:11;11.10;99.90
52203;DHT22;38173;52.850;6.970;2022-08-02T00:24:36;11.10;99.90
52203;DHT22;38173;52.850;6.970;2022-08-02T00:27:02;11.00;99.90
52203;DHT22;38173;52.850;6.970;2022-08-02T00:29:29;11.00;99.90
52203;DHT22;38173;52.850;6.970;2022-08-02T00:31:56;11.10;99.90
52203;DHT22;38173;52.850;6.970;2022-08-02T00:34:22;11.10;99.90
52203;DHT22;38173;52.850;6.970;2022-08-02T00:36:47;11.10;99.90
52203;DHT22;38173;52.850;6.970;2022-08-02T00:39:13;11.10;99.90
52203;DHT22;38173;52.850;6.970;2022-08-02T00:41:47;11.00;99.90
52203;DHT22;38173;52.850;6.970;2022-08-02T00:44:18;11.00;99.90
52203;DHT22;38173;52.850;6.970;2022-08-02T00:46:44;11.00;99.90
52203;DHT22;38173;52.850;6.970;2022-08-02T00:49:10;11.00;99.90
52203;DHT22;38173;52.850;6.970;2022-08-02T00:51:36;11.00;99.90
52203;DHT22;38173;52.850;6.970;2022-08-02T00:54:03;11.00;99.90
52203;DHT22;38173;52.850;6.970;2022-08-02T00:56:29;10.90;99.90
52203;DHT22;38173;52.850;6.970;2022-08-02T00:58:55;10.90;99.90
52203;DHT22;38173;52.850;6.970;2022-08-02T01:01:21;10.90;99.90
52203;DHT22;38173;52.850;6.970;2022-08-02T01:04:04;10.90;99.90
52203;DHT22;38173;52.850;6.970;2022-08-02T01:06:30;10.90;99.90
52203;DHT22;38173;52.850;6.970;2022-08-02T01:08:58;10.90;99.90
52203;DHT22;38173;52.850;6.970;2022-08-02T01:11:25;10.90;99.90
52203;DHT22;38173;52.850;6.970;2022-08-02T01:13:51;10.90;99.90
52203;DHT22;38173;52.850;6.970;2022-08-02T01:16:20;10.90;99.90
52203;DHT22;38173;52.850;6.970;2022-08-02T01:18:53;10.90;99.90
52203;DHT22;38173;52.850;6.970;2022-08-02T01:21:48;11.00;99.90
52203;DHT22;38173;52.850;6.970;2022-08-02T01:32:17;11.00;99.90
52203;DHT22;38173;52.850;6.970;2022-08-02T01:34:55;11.00;99.90
52203;DHT22;38173;52.850;6.970;2022-08-02T01:37:31;10.90;99.90
52203;DHT22;38173;52.850;6.970;2022-08-02T01:40:12;10.90;99.90
52203;DHT22;38173;52.850;6.970;2022-08-02T01:42:46;10.90;99.90
52203;DHT22;38173;52.850;6.970;2022-08-02T01:45:14;10.90;99.90
52203;DHT22;38173;52.850;6.970;2022-08-02T01:47:41;10.90;99.90
52203;DHT22;38173;52.850;6.970;2022-08-02T01:50:13;10.90;99.90
52203;DHT22;38173;52.850;6.970;2022-08-02T01:52:51;10.90;99.90
52203;DHT22;38173;52.850;6.970;2022-08-02T01:55:28;10.90;99.90
52203;DHT22;38173;52.850;6.970;2022-08-02T01:57:59;10.90;99.90
52203;DHT22;38173;52.850;6.970;2022-08-02T02:00:29;10.90;99.90
52203;DHT22;38173;52.850;6.970;2022-08-02T02:02:57;10.90;99.90
52203;DHT22;38173;52.850;6.970;2022-08-02T02:05:24;10.90;99.90
52203;DHT22;38173;52.850;6.970;2022-08-02T02:07:54;10.90;99.90
52203;DHT22;38173;52.850;6.970;2022-08-02T02:10:27;10.90;99.90
52203;DHT22;38173;52.850;6.970;2022-08-02T02:12:55;10.90;99.90
52203;DHT22;38173;52.850;6.970;2022-08-02T02:15:23;10.90;99.90
52203;DHT22;38173;52.850;6.970;2022-08-02T02:17:51;10.90;99.90
52203;DHT22;38173;52.850;6.970;2022-08-02T02:20:19;10.80;99.90
52203;DHT22;38173;52.850;6.970;2022-08-02T02:22:46;10.80;99.90
52203;DHT22;38173;52.850;6.970;2022-08-02T02:25:13;10.90;99.90
52203;DHT22;38173;52.850;6.970;2022-08-02T02:27:47;10.90;99.90
52203;DHT22;38173;52.850;6.970;2022-08-02T02:30:15;10.90;99.90
52203;DHT22;38173;52.850;6.970;2022-08-02T02:32:43;10.90;99.90
52203;DHT22;38173;52.850;6.970;2022-08-02T02:35:10;10.90;99.90
52203;DHT22;38173;52.850;6.970;2022-08-02T02:37:37;10.80;99.90
52203;DHT22;38173;52.850;6.970;2022-08-02T02:40:06;10.90;99.90
52203;DHT22;38173;52.850;6.970;2022-08-02T02:42:33;10.90;99.90
52203;DHT22;38173;52.850;6.970;2022-08-02T02:45:02;10.90;99.90
52203;DHT22;38173;52.850;6.970;2022-08-02T02:47:28;10.80;99.90
52203;DHT22;38173;52.850;6.970;2022-08-02T02:49:56;10.80;99.90
52203;DHT22;38173;52.850;6.970;2022-08-02T02:52:23;10.80;99.90
52203;DHT22;38173;52.850;6.970;2022-08-02T02:54:50;10.80;99.90
52203;DHT22;38173;52.850;6.970;2022-08-02T02:57:17;10.80;99.90
52203;DHT22;38173;52.850;6.970;2022-08-02T02:59:43;10.70;99.90
52203;DHT22;38173;52.850;6.970;2022-08-02T03:02:10;10.70;99.90
52203;DHT22;38173;52.850;6.970;2022-08-02T03:04:36;10.70;99.90
52203;DHT22;38173;52.850;6.970;2022-08-02T03:07:04;10.70;99.90
52203;DHT22;38173;52.850;6.970;2022-08-02T03:09:30;10.70;99.90
52203;DHT22;38173;52.850;6.970;2022-08-02T03:11:56;10.70;99.90
52203;DHT22;38173;52.850;6.970;2022-08-02T03:14:22;10.60;99.90
52203;DHT22;38173;52.850;6.970;2022-08-02T03:16:50;10.60;99.90
52203;DHT22;38173;52.850;6.970;2022-08-02T03:19:17;10.50;99.90
52203;DHT22;38173;52.850;6.970;2022-08-02T03:21:44;10.50;99.90
52203;DHT22;38173;52.850;6.970;2022-08-02T03:24:11;10.50;99.90
52203;DHT22;38173;52.850;6.970;2022-08-02T03:26:37;10.40;99.90
52203;DHT22;38173;52.850;6.970;2022-08-02T03:29:03;10.40;99.90
52203;DHT22;38173;52.850;6.970;2022-08-02T03:31:29;10.40;99.90
52203;DHT22;38173;52.850;6.970;2022-08-02T03:33:55;10.40;99.90
52203;DHT22;38173;52.850;6.970;2022-08-02T03:36:26;10.40;99.90
52203;DHT22;38173;52.850;6.970;2022-08-02T03:38:52;10.40;99.90
52203;DHT22;38173;52.850;6.970;2022-08-02T03:41:19;10.40;99.90
52203;DHT22;38173;52.850;6.970;2022-08-02T03:43:48;10.40;99.90
52203;DHT22;38173;52.850;6.970;2022-08-02T03:46:16;10.40;99.90
52203;DHT22;38173;52.850;6.970;2022-08-02T03:48:42;10.40;99.90
52203;DHT22;38173;52.850;6.970;2022-08-02T03:51:10;10.40;99.90
52203;DHT22;38173;52.850;6.970;2022-08-02T03:53:37;10.40;99.90
52203;DHT22;38173;52.850;6.970;2022-08-02T03:56:04;10.40;99.90
52203;DHT22;38173;52.850;6.970;2022-08-02T03:58:30;10.30;99.90
52203;DHT22;38173;52.850;6.970;2022-08-02T04:00:56;10.40;99.90
52203;DHT22;38173;52.850;6.970;2022-08-02T04:03:23;10.30;99.90
52203;DHT22;38173;52.850;6.970;2022-08-02T04:05:49;10.30;99.90
52203;DHT22;38173;52.850;6.970;2022-08-02T04:08:14;10.30;99.90
52203;DHT22;38173;52.850;6.970;2022-08-02T04:10:40;10.30;99.90
52203;DHT22;38173;52.850;6.970;2022-08-02T04:13:29;10.20;99.90
52203;DHT22;38173;52.850;6.970;2022-08-02T04:16:20;10.20;99.90
52203;DHT22;38173;52.850;6.970;2022-08-02T04:18:50;10.20;99.90
52203;DHT22;38173;52.850;6.970;2022-08-02T04:21:20;10.20;99.90
52203;DHT22;38173;52.850;6.970;2022-08-02T04:23:47;10.30;99.90
52203;DHT22;38173;52.850;6.970;2022-08-02T04:26:15;10.30;99.90
52203;DHT22;38173;52.850;6.970;2022-08-02T04:28:41;10.30;99.90
52203;DHT22;38173;52.850;6.970;2022-08-02T04:31:07;10.40;99.90
52203;DHT22;38173;52.850;6.970;2022-08-02T04:33:34;10.40;99.90
52203;DHT22;38173;52.850;6.970;2022-08-02T04:36:01;10.50;99.90
52203;DHT22;38173;52.850;6.970;2022-08-02T04:38:27;10.50;99.90
52203;DHT22;38173;52.850;6.970;2022-08-02T04:40:54;10.50;99.90
52203;DHT22;38173;52.850;6.970;2022-08-02T04:43:20;10.50;99.90
52203;DHT22;38173;52.850;6.970;2022-08-02T04:45:49;10.60;99.90
52203;DHT22;38173;52.850;6.970;2022-08-02T04:48:16;10.60;99.90
52203;DHT22;38173;52.850;6.970;2022-08-02T04:50:41;10.70;99.90
52203;DHT22;38173;52.850;6.970;2022-08-02T04:53:07;10.80;99.90
52203;DHT22;38173;52.850;6.970;2022-08-02T04:55:33;10.80;99.90
52203;DHT22;38173;52.850;6.970;2022-08-02T04:57:59;10.90;99.90
52203;DHT22;38173;52.850;6.970;2022-08-02T05:00:26;10.90;99.90
52203;DHT22;38173;52.850;6.970;2022-08-02T05:02:52;10.90;99.90
52203;DHT22;38173;52.850;6.970;2022-08-02T05:05:17;11.00;99.90
52203;DHT22;38173;52.850;6.970;2022-08-02T05:07:44;11.00;99.90
52203;DHT22;38173;52.850;6.970;2022-08-02T05:10:10;11.10;99.90
52203;DHT22;38173;52.850;6.970;2022-08-02T05:12:38;11.20;99.90
52203;DHT22;38173;52.850;6.970;2022-08-02T05:15:05;11.20;99.90
52203;DHT22;38173;52.850;6.970;2022-08-02T05:17:31;11.30;99.90
52203;DHT22;38173;52.850;6.970;2022-08-02T05:19:56;11.30;99.90
52203;DHT22;38173;52.850;6.970;2022-08-02T05:22:22;11.40;99.90
52203;DHT22;38173;52.850;6.970;2022-08-02T05:24:48;11.50;99.90
52203;DHT22;38173;52.850;6.970;2022-08-02T05:27:14;11.50;99.90
52203;DHT22;38173;52.850;6.970;2022-08-02T05:29:39;11.60;99.90
52203;DHT22;38173;52.850;6.970;2022-08-02T05:32:05;11.70;99.90
52203;DHT22;38173;52.850;6.970;2022-08-02T05:34:31;11.80;99.90
52203;DHT22;38173;52.850;6.970;2022-08-02T05:36:57;11.90;99.90
52203;DHT22;38173;52.850;6.970;2022-08-02T05:39:22;11.90;99.90
52203;DHT22;38173;52.850;6.970;2022-08-02T05:41:48;12.00;99.90
52203;DHT22;38173;52.850;6.970;2022-08-02T05:44:14;12.20;99.90
52203;DHT22;38173;52.850;6.970;2022-08-02T05:46:40;12.30;99.90
52203;DHT22;38173;52.850;6.970;2022-08-02T05:49:05;12.40;99.90
52203;DHT22;38173;52.850;6.970;2022-08-02T05:52:13;12.50;99.90
52203;DHT22;38173;52.850;6.970;2022-08-02T05:55:00;12.70;99.90
52203;DHT22;38173;52.850;6.970;2022-08-02T05:58:05;12.90;99.90
52203;DHT22;38173;52.850;6.970;2022-08-02T06:00:32;13.10;99.90
52203;DHT22;38173;52.850;6.970;2022-08-02T06:05:35;13.40;99.90
52203;DHT22;38173;52.850;6.970;2022-08-02T06:08:05;13.50;99.90
52203;DHT22;38173;52.850;6.970;2022-08-02T06:10:35;13.70;99.90
52203;DHT22;38173;52.850;6.970;2022-08-02T06:13:10;13.90;99.90
52203;DHT22;38173;52.850;6.970;2022-08-02T06:15:37;14.00;99.90
52203;DHT22;38173;52.850;6.970;2022-08-02T06:18:04;14.20;99.90
52203;DHT22;38173;52.850;6.970;2022-08-02T06:20:30;14.40;99.90
52203;DHT22;38173;52.850;6.970;2022-08-02T06:23:03;14.50;99.90
52203;DHT22;38173;52.850;6.970;2022-08-02T06:25:30;14.70;99.90
52203;DHT22;38173;52.850;6.970;2022-08-02T06:28:00;14.80;99.90
52203;DHT22;38173;52.850;6.970;2022-08-02T06:30:26;15.00;99.90
52203;DHT22;38173;52.850;6.970;2022-08-02T06:32:52;15.20;99.90
52203;DHT22;38173;52.850;6.970;2022-08-02T06:35:18;15.40;99.90
52203;DHT22;38173;52.850;6.970;2022-08-02T06:38:12;15.50;99.90
52203;DHT22;38173;52.850;6.970;2022-08-02T06:41:05;15.60;99.90
52203;DHT22;38173;52.850;6.970;2022-08-02T06:46:03;16.00;99.90
52203;DHT22;38173;52.850;6.970;2022-08-02T06:48:30;16.20;99.90
52203;DHT22;38173;52.850;6.970;2022-08-02T06:50:56;16.30;99.90
52203;DHT22;38173;52.850;6.970;2022-08-02T06:53:21;16.50;99.90
52203;DHT22;38173;52.850;6.970;2022-08-02T06:55:47;16.60;99.90
52203;DHT22;38173;52.850;6.970;2022-08-02T06:58:13;16.80;99.90
52203;DHT22;38173;52.850;6.970;2022-08-02T07:00:41;16.90;99.90
52203;DHT22;38173;52.850;6.970;2022-08-02T07:03:06;17.00;99.90
52203;DHT22;38173;52.850;6.970;2022-08-02T07:05:33;17.10;99.90
52203;DHT22;38173;52.850;6.970;2022-08-02T07:08:00;17.20;99.90
52203;DHT22;38173;52.850;6.970;2022-08-02T07:10:26;17.30;99.90
52203;DHT22;38173;52.850;6.970;2022-08-02T07:12:53;17.40;99.90
52203;DHT22;38173;52.850;6.970;2022-08-02T07:15:25;17.40;99.90
52203;DHT22;38173;52.850;6.970;2022-08-02T07:17:51;17.60;99.90
52203;DHT22;38173;52.850;6.970;2022-08-02T07:20:16;17.70;99.90
52203;DHT22;38173;52.850;6.970;2022-08-02T07:22:42;17.80;99.90
52203;DHT22;38173;52.850;6.970;2022-08-02T07:25:08;18.00;99.90
52203;DHT22;38173;52.850;6.970;2022-08-02T07:27:34;18.20;99.90
52203;DHT22;38173;52.850;6.970;2022-08-02T07:30:00;18.40;99.90
52203;DHT22;38173;52.850;6.970;2022-08-02T07:32:28;18.60;99.90
52203;DHT22;38173;52.850;6.970;2022-08-02T07:34:55;18.70;99.90
52203;DHT22;38173;52.850;6.970;2022-08-02T07:37:30;18.90;99.90
52203;DHT22;38173;52.850;6.970;2022-08-02T07:39:56;19.00;99.90
52203;DHT22;38173;52.850;6.970;2022-08-02T07:42:22;19.10;99.90
52203;DHT22;38173;52.850;6.970;2022-08-02T07:44:53;19.10;99.90
52203;DHT22;38173;52.850;6.970;2022-08-02T07:47:19;19.20;99.90
52203;DHT22;38173;52.850;6.970;2022-08-02T07:49:44;19.10;99.90
52203;DHT22;38173;52.850;6.970;2022-08-02T07:52:10;19.00;99.90
52203;DHT22;38173;52.850;6.970;2022-08-02T07:54:37;19.00;99.90
52203;DHT22;38173;52.850;6.970;2022-08-02T07:57:03;19.00;99.90
52203;DHT22;38173;52.850;6.970;2022-08-02T07:59:29;19.20;99.90
52203;DHT22;38173;52.850;6.970;2022-08-02T08:01:55;19.30;99.90
52203;DHT22;38173;52.850;6.970;2022-08-02T08:04:21;19.40;99.90
52203;DHT22;38173;52.850;6.970;2022-08-02T08:06:47;19.60;99.90
52203;DHT22;38173;52.850;6.970;2022-08-02T08:09:16;19.70;99.90
52203;DHT22;38173;52.850;6.970;2022-08-02T08:11:42;19.80;99.90
52203;DHT22;38173;52.850;6.970;2022-08-02T08:14:08;20.00;99.90
52203;DHT22;38173;52.850;6.970;2022-08-02T08:16:34;20.00;99.90
52203;DHT22;38173;52.850;6.970;2022-08-02T08:19:00;20.10;99.90
52203;DHT22;38173;52.850;6.970;2022-08-02T08:21:27;20.20;99.90
52203;DHT22;38173;52.850;6.970;2022-08-02T08:23:54;20.20;99.90
52203;DHT22;38173;52.850;6.970;2022-08-02T08:26:20;20.30;99.90
52203;DHT22;38173;52.850;6.970;2022-08-02T08:28:45;20.40;99.90
52203;DHT22;38173;52.850;6.970;2022-08-02T08:31:11;20.40;99.90
52203;DHT22;38173;52.850;6.970;2022-08-02T08:33:37;20.50;99.90
52203;DHT22;38173;52.850;6.970;2022-08-02T08:36:02;20.50;99.90
52203;DHT22;38173;52.850;6.970;2022-08-02T08:38:29;20.50;99.90
52203;DHT22;38173;52.850;6.970;2022-08-02T08:40:57;20.70;99.90
52203;DHT22;38173;52.850;6.970;2022-08-02T08:43:23;20.70;99.90
52203;DHT22;38173;52.850;6.970;2022-08-02T08:45:49;20.90;99.90
52203;DHT22;38173;52.850;6.970;2022-08-02T08:48:16;21.00;99.90
52203;DHT22;38173;52.850;6.970;2022-08-02T08:50:49;21.20;99.90
52203;DHT22;38173;52.850;6.970;2022-08-02T08:53:16;21.30;99.90
52203;DHT22;38173;52.850;6.970;2022-08-02T08:55:42;21.30;99.90
52203;DHT22;38173;52.850;6.970;2022-08-02T08:58:10;21.40;99.90
52203;DHT22;38173;52.850;6.970;2022-08-02T09:00:37;21.40;99.90
52203;DHT22;38173;52.850;6.970;2022-08-02T09:03:04;21.50;99.90
52203;DHT22;38173;52.850;6.970;2022-08-02T09:05:31;21.50;99.90
52203;DHT22;38173;52.850;6.970;2022-08-02T09:07:58;21.50;99.90
52203;DHT22;38173;52.850;6.970;2022-08-02T09:13:07;21.70;99.90
52203;DHT22;38173;52.850;6.970;2022-08-02T09:15:34;21.80;99.90
52203;DHT22;38173;52.850;6.970;2022-08-02T09:18:04;21.80;99.90
52203;DHT22;38173;52.850;6.970;2022-08-02T09:20:32;21.90;99.90
52203;DHT22;38173;52.850;6.970;2022-08-02T09:23:09;21.90;99.90
52203;DHT22;38173;52.850;6.970;2022-08-02T09:25:36;22.00;99.90
52203;DHT22;38173;52.850;6.970;2022-08-02T09:28:03;22.00;99.90
52203;DHT22;38173;52.850;6.970;2022-08-02T09:30:29;22.10;99.90
52203;DHT22;38173;52.850;6.970;2022-08-02T09:32:55;22.30;99.90
52203;DHT22;38173;52.850;6.970;2022-08-02T09:35:35;22.40;99.90
52203;DHT22;38173;52.850;6.970;2022-08-02T09:38:12;22.50;99.90
52203;DHT22;38173;52.850;6.970;2022-08-02T09:40:39;22.60;99.90
52203;DHT22;38173;52.850;6.970;2022-08-02T09:43:07;22.70;99.90
52203;DHT22;38173;52.850;6.970;2022-08-02T09:45:34;22.80;99.90
52203;DHT22;38173;52.850;6.970;2022-08-02T09:48:07;22.90;99.90
52203;DHT22;38173;52.850;6.970;2022-08-02T09:50:40;23.10;99.90
52203;DHT22;38173;52.850;6.970;2022-08-02T09:53:13;23.20;99.90
52203;DHT22;38173;52.850;6.970;2022-08-02T09:55:42;23.30;99.90
52203;DHT22;38173;52.850;6.970;2022-08-02T09:58:20;23.50;99.90
52203;DHT22;38173;52.850;6.970;2022-08-02T10:00:56;23.50;99.90
52203;DHT22;38173;52.850;6.970;2022-08-02T10:03:23;23.70;99.90
52203;DHT22;38173;52.850;6.970;2022-08-02T10:05:51;23.70;99.90
52203;DHT22;38173;52.850;6.970;2022-08-02T10:08:18;23.90;99.90
52203;DHT22;38173;52.850;6.970;2022-08-02T10:10:44;23.90;99.90
52203;DHT22;38173;52.850;6.970;2022-08-02T10:13:11;23.90;99.90
52203;DHT22;38173;52.850;6.970;2022-08-02T10:15:37;23.90;99.90
52203;DHT22;38173;52.850;6.970;2022-08-02T10:18:05;23.90;99.90
52203;DHT22;38173;52.850;6.970;2022-08-02T10:20:35;23.90;99.90
52203;DHT22;38173;52.850;6.970;2022-08-02T10:23:02;24.00;99.90
52203;DHT22;38173;52.850;6.970;2022-08-02T10:25:29;24.10;99.90
52203;DHT22;38173;52.850;6.970;2022-08-02T10:27:56;24.20;99.90
52203;DHT22;38173;52.850;6.970;2022-08-02T10:30:23;24.30;99.90
52203;DHT22;38173;52.850;6.970;2022-08-02T10:32:50;24.40;99.90
52203;DHT22;38173;52.850;6.970;2022-08-02T10:35:21;24.40;99.90
52203;DHT22;38173;52.850;6.970;2022-08-02T10:37:50;24.50;99.90
52203;DHT22;38173;52.850;6.970;2022-08-02T10:40:16;24.50;99.90
52203;DHT22;38173;52.850;6.970;2022-08-02T10:42:53;24.60;99.90
52203;DHT22;38173;52.850;6.970;2022-08-02T10:45:21;24.50;99.90
52203;DHT22;38173;52.850;6.970;2022-08-02T10:48:02;24.60;99.90
52203;DHT22;38173;52.850;6.970;2022-08-02T10:53:19;24.60;99.90
52203;DHT22;38173;52.850;6.970;2022-08-02T10:55:45;24.70;99.90
52203;DHT22;38173;52.850;6.970;2022-08-02T10:58:21;24.70;99.90
52203;DHT22;38173;52.850;6.970;2022-08-02T11:00:48;24.80;99.90
52203;DHT22;38173;52.850;6.970;2022-08-02T11:03:34;24.80;99.90
52203;DHT22;38173;52.850;6.970;2022-08-02T11:06:01;24.80;99.90
52203;DHT22;38173;52.850;6.970;2022-08-02T11:08:28;24.80;99.90
52203;DHT22;38173;52.850;6.970;2022-08-02T11:11:14;24.90;99.90
52203;DHT22;38173;52.850;6.970;2022-08-02T11:14:05;25.00;99.90
52203;DHT22;38173;52.850;6.970;2022-08-02T11:19:25;25.20;99.90
52203;DHT22;38173;52.850;6.970;2022-08-02T11:24:32;25.50;99.90
52203;DHT22;38173;52.850;6.970;2022-08-02T11:26:59;25.60;99.90
52203;DHT22;38173;52.850;6.970;2022-08-02T11:29:35;25.60;99.90
52203;DHT22;38173;52.850;6.970;2022-08-02T11:32:03;25.70;99.90
52203;DHT22;38173;52.850;6.970;2022-08-02T11:34:30;25.70;99.90
52203;DHT22;38173;52.850;6.970;2022-08-02T11:36:56;25.80;99.90
52203;DHT22;38173;52.850;6.970;2022-08-02T11:39:22;25.80;99.90
52203;DHT22;38173;52.850;6.970;2022-08-02T11:41:53;26.00;99.90
52203;DHT22;38173;52.850;6.970;2022-08-02T11:44:19;26.10;99.90
52203;DHT22;38173;52.850;6.970;2022-08-02T11:46:55;26.20;99.90
52203;DHT22;38173;52.850;6.970;2022-08-02T11:49:21;26.30;99.90
52203;DHT22;38173;52.850;6.970;2022-08-02T11:54:39;26.30;99.90
52203;DHT22;38173;52.850;6.970;2022-08-02T11:57:15;26.30;99.90
52203;DHT22;38173;52.850;6.970;2022-08-02T11:59:43;26.30;99.90
52203;DHT22;38173;52.850;6.970;2022-08-02T12:02:10;26.40;99.90
52203;DHT22;38173;52.850;6.970;2022-08-02T12:04:37;26.40;99.90
52203;DHT22;38173;52.850;6.970;2022-08-02T12:07:04;26.60;99.90
52203;DHT22;38173;52.850;6.970;2022-08-02T12:09:31;26.60;99.90
52203;DHT22;38173;52.850;6.970;2022-08-02T12:11:58;26.80;99.90
52203;DHT22;38173;52.850;6.970;2022-08-02T12:14:25;26.80;99.90
52203;DHT22;38173;52.850;6.970;2022-08-02T12:16:52;26.90;99.90
52203;DHT22;38173;52.850;6.970;2022-08-02T12:19:39;27.00;99.90
52203;DHT22;38173;52.850;6.970;2022-08-02T12:24:35;27.20;99.90
52203;DHT22;38173;52.850;6.970;2022-08-02T12:27:01;27.30;99.90
52203;DHT22;38173;52.850;6.970;2022-08-02T12:29:38;27.40;97.80
52203;DHT22;38173;52.850;6.970;2022-08-02T12:32:05;27.40;94.50
52203;DHT22;38173;52.850;6.970;2022-08-02T12:34:32;27.50;92.70
52203;DHT22;38173;52.850;6.970;2022-08-02T12:39:37;27.60;98.90
52203;DHT22;38173;52.850;6.970;2022-08-02T12:42:04;27.80;97.50
52203;DHT22;38173;52.850;6.970;2022-08-02T12:44:30;27.80;98.10
52203;DHT22;38173;52.850;6.970;2022-08-02T12:47:00;27.70;99.90
52203;DHT22;38173;52.850;6.970;2022-08-02T12:49:26;27.70;85.90
52203;DHT22;38173;52.850;6.970;2022-08-02T12:51:52;27.60;92.30
52203;DHT22;38173;52.850;6.970;2022-08-02T12:54:20;27.60;92.30
52203;DHT22;38173;52.850;6.970;2022-08-02T12:56:47;27.50;93.70
52203;DHT22;38173;52.850;6.970;2022-08-02T12:59:15;27.70;90.80
52203;DHT22;38173;52.850;6.970;2022-08-02T13:01:41;28.20;93.20
52203;DHT22;38173;52.850;6.970;2022-08-02T13:04:07;28.70;91.30
52203;DHT22;38173;52.850;6.970;2022-08-02T13:06:33;29.30;91.90
52203;DHT22;38173;52.850;6.970;2022-08-02T13:09:00;29.40;92.40
52203;DHT22;38173;52.850;6.970;2022-08-02T13:11:26;29.50;90.30
52203;DHT22;38173;52.850;6.970;2022-08-02T13:13:53;29.40;87.20
52203;DHT22;38173;52.850;6.970;2022-08-02T13:16:19;29.40;90.40
52203;DHT22;38173;52.850;6.970;2022-08-02T13:18:44;29.10;84.50
52203;DHT22;38173;52.850;6.970;2022-08-02T13:21:11;28.80;87.90
52203;DHT22;38173;52.850;6.970;2022-08-02T13:23:37;28.70;92.60
52203;DHT22;38173;52.850;6.970;2022-08-02T13:26:03;28.50;93.70
52203;DHT22;38173;52.850;6.970;2022-08-02T13:28:29;28.20;96.70
52203;DHT22;38173;52.850;6.970;2022-08-02T13:30:54;27.90;91.00
52203;DHT22;38173;52.850;6.970;2022-08-02T13:33:20;27.70;92.60
52203;DHT22;38173;52.850;6.970;2022-08-02T13:35:47;27.50;94.60
52203;DHT22;38173;52.850;6.970;2022-08-02T13:38:13;27.40;92.20
52203;DHT22;38173;52.850;6.970;2022-08-02T13:40:38;27.20;94.60
52203;DHT22;38173;52.850;6.970;2022-08-02T13:43:25;27.10;98.80
52203;DHT22;38173;52.850;6.970;2022-08-02T13:45:51;27.00;99.90
52203;DHT22;38173;52.850;6.970;2022-08-02T13:48:17;27.00;96.60
52203;DHT22;38173;52.850;6.970;2022-08-02T13:50:42;27.10;96.80
52203;DHT22;38173;52.850;6.970;2022-08-02T13:53:08;27.20;96.50
52203;DHT22;38173;52.850;6.970;2022-08-02T13:55:34;27.40;96.70
52203;DHT22;38173;52.850;6.970;2022-08-02T13:58:00;27.90;96.40
52203;DHT22;38173;52.850;6.970;2022-08-02T14:00:26;28.20;94.90
52203;DHT22;38173;52.850;6.970;2022-08-02T14:02:52;28.50;89.40
52203;DHT22;38173;52.850;6.970;2022-08-02T14:05:18;28.60;90.80
52203;DHT22;38173;52.850;6.970;2022-08-02T14:07:43;28.60;94.10
52203;DHT22;38173;52.850;6.970;2022-08-02T14:10:09;29.00;90.20
52203;DHT22;38173;52.850;6.970;2022-08-02T14:12:35;29.10;83.50
52203;DHT22;38173;52.850;6.970;2022-08-02T14:15:01;29.00;85.10
52203;DHT22;38173;52.850;6.970;2022-08-02T14:17:26;29.10;90.90
52203;DHT22;38173;52.850;6.970;2022-08-02T14:19:52;29.10;90.50
52203;DHT22;38173;52.850;6.970;2022-08-02T14:22:18;29.20;86.80
52203;DHT22;38173;52.850;6.970;2022-08-02T14:24:44;29.30;90.20
52203;DHT22;38173;52.850;6.970;2022-08-02T14:27:09;29.20;84.80
52203;DHT22;38173;52.850;6.970;2022-08-02T14:29:35;28.90;90.60
52203;DHT22;38173;52.850;6.970;2022-08-02T14:32:01;28.70;93.20
52203;DHT22;38173;52.850;6.970;2022-08-02T14:34:27;28.50;94.30
52203;DHT22;38173;52.850;6.970;2022-08-02T14:36:54;28.40;95.50
52203;DHT22;38173;52.850;6.970;2022-08-02T14:39:20;28.10;95.90
52203;DHT22;38173;52.850;6.970;2022-08-02T14:41:46;27.90;97.30
52203;DHT22;38173;52.850;6.970;2022-08-02T14:44:11;27.60;97.90
52203;DHT22;38173;52.850;6.970;2022-08-02T14:46:38;27.50;99.50
52203;DHT22;38173;52.850;6.970;2022-08-02T14:49:10;27.40;98.80
52203;DHT22;38173;52.850;6.970;2022-08-02T14:51:37;27.40;99.90
52203;DHT22;38173;52.850;6.970;2022-08-02T14:54:05;27.70;99.90
52203;DHT22;38173;52.850;6.970;2022-08-02T14:56:32;27.90;98.70
52203;DHT22;38173;52.850;6.970;2022-08-02T14:58:58;28.00;97.30
52203;DHT22;38173;52.850;6.970;2022-08-02T15:01:24;28.30;97.80
52203;DHT22;38173;52.850;6.970;2022-08-02T15:03:50;28.60;95.30
52203;DHT22;38173;52.850;6.970;2022-08-02T15:06:16;28.70;95.90
52203;DHT22;38173;52.850;6.970;2022-08-02T15:08:42;28.70;91.30
52203;DHT22;38173;52.850;6.970;2022-08-02T15:11:07;28.60;94.50
52203;DHT22;38173;52.850;6.970;2022-08-02T15:13:33;28.50;97.10
52203;DHT22;38173;52.850;6.970;2022-08-02T15:15:59;28.40;95.40
52203;DHT22;38173;52.850;6.970;2022-08-02T15:18:25;28.20;93.60
52203;DHT22;38173;52.850;6.970;2022-08-02T15:20:50;28.10;95.50
52203;DHT22;38173;52.850;6.970;2022-08-02T15:23:16;28.00;97.90
52203;DHT22;38173;52.850;6.970;2022-08-02T15:25:42;28.00;96.40
52203;DHT22;38173;52.850;6.970;2022-08-02T15:28:08;28.00;95.60
52203;DHT22;38173;52.850;6.970;2022-08-02T15:30:34;27.90;97.10
52203;DHT22;38173;52.850;6.970;2022-08-02T15:33:01;27.80;95.80
52203;DHT22;38173;52.850;6.970;2022-08-02T15:35:27;27.70;98.00
52203;DHT22;38173;52.850;6.970;2022-08-02T15:37:53;27.80;99.90
52203;DHT22;38173;52.850;6.970;2022-08-02T15:40:19;27.90;99.10
52203;DHT22;38173;52.850;6.970;2022-08-02T15:42:46;28.20;97.40
52203;DHT22;38173;52.850;6.970;2022-08-02T15:45:12;28.40;95.90
52203;DHT22;38173;52.850;6.970;2022-08-02T15:47:38;28.40;94.40
52203;DHT22;38173;52.850;6.970;2022-08-02T15:50:04;29.00;97.50
52203;DHT22;38173;52.850;6.970;2022-08-02T15:52:30;30.20;90.40
52203;DHT22;38173;52.850;6.970;2022-08-02T15:54:55;31.10;85.30
52203;DHT22;38173;52.850;6.970;2022-08-02T15:57:22;31.90;78.20
52203;DHT22;38173;52.850;6.970;2022-08-02T15:59:48;32.60;77.10
52203;DHT22;38173;52.850;6.970;2022-08-02T16:02:13;33.40;72.60
52203;DHT22;38173;52.850;6.970;2022-08-02T16:04:40;34.10;71.30
52203;DHT22;38173;52.850;6.970;2022-08-02T16:07:06;34.60;66.80